Time;durP1;ratioP1;P1;durP2;ratioP2;P2;SDS_P1;SDS_P2;PMS_P1;PMS_P2;Temp;Humidity;BMP_temperature;BMP_pressure;BME280_temperature;BME280_humidity;BME280_pressure;Samples;Min_cycle;Max_cycle;Signal;HPM_P1;HPM_P2
2024/02/04 00:01:51;;;;;;;11.33;9.33;;;10.70;99.90;;;;;;4994927;28;20258;-87
2024/02/04 00:04:16;;;;;;;12.40;9.20;;;10.70;99.60;;;;;;4993109;28;20251;-85
2024/02/04 00:06:42;;;;;;;14.00;10.20;;;10.70;99.40;;;;;;4992762;28;20239;-86
2024/02/04 00:09:08;;;;;;;12.37;8.83;;;10.70;99.90;;;;;;4987986;28;20250;-87
2024/02/04 00:11:34;;;;;;;11.47;9.20;;;10.70;99.90;;;;;;4997196;28;20230;-85
2024/02/04 00:14:00;;;;;;;11.77;8.27;;;10.70;99.90;;;;;;4987027;28;20447;-84
2024/02/04 00:16:25;;;;;;;11.17;8.67;;;10.70;99.50;;;;;;4997381;28;20956;-85
2024/02/04 00:18:51;;;;;;;12.43;8.93;;;10.70;98.60;;;;;;4993188;28;20195;-85
2024/02/04 00:21:16;;;;;;;12.47;7.60;;;10.60;98.50;;;;;;4989465;28;20191;-82
2024/02/04 00:23:42;;;;;;;12.40;8.53;;;10.70;98.50;;;;;;4993344;28;20188;-84
2024/02/04 00:26:07;;;;;;;10.50;7.30;;;10.70;98.00;;;;;;4991861;28;20207;-85
2024/02/04 00:28:33;;;;;;;7.60;6.10;;;10.60;98.50;;;;;;4988902;28;20185;-85
2024/02/04 00:30:59;;;;;;;18.10;8.10;;;10.60;99.50;;;;;;4992799;28;20195;-85
2024/02/04 00:33:25;;;;;;;9.77;7.13;;;10.60;99.10;;;;;;4991273;28;20184;-85
2024/02/04 00:35:51;;;;;;;8.87;6.00;;;10.60;99.10;;;;;;4989097;28;20914;-83
2024/02/04 00:38:16;;;;;;;11.27;6.87;;;10.60;99.20;;;;;;4989037;28;20443;-84
2024/02/04 00:40:42;;;;;;;6.87;5.77;;;10.70;99.10;;;;;;5014129;28;20443;-87
2024/02/04 00:43:07;;;;;;;8.40;6.20;;;10.70;98.20;;;;;;4991853;28;20192;-86
2024/02/04 00:45:33;;;;;;;8.07;6.73;;;10.70;97.50;;;;;;4990293;28;20670;-84
2024/02/04 00:47:58;;;;;;;7.30;6.37;;;10.70;96.90;;;;;;4990838;28;20693;-85
2024/02/04 00:50:24;;;;;;;7.67;5.77;;;10.70;97.30;;;;;;4990413;28;20255;-86
2024/02/04 00:52:50;;;;;;;6.30;5.00;;;10.70;97.60;;;;;;4996908;28;20191;-85
2024/02/04 00:55:15;;;;;;;7.47;6.00;;;10.70;97.90;;;;;;4991638;28;20300;-86
2024/02/04 00:57:41;;;;;;;6.93;5.37;;;10.70;97.70;;;;;;4989362;28;20185;-85
2024/02/04 01:00:07;;;;;;;6.07;5.00;;;10.70;97.50;;;;;;5012550;28;20207;-85
2024/02/04 01:02:33;;;;;;;6.30;5.30;;;10.70;98.20;;;;;;4999378;28;20222;-87
2024/02/04 01:04:59;;;;;;;5.80;5.00;;;10.70;97.50;;;;;;4995758;28;20481;-87
2024/02/04 01:07:25;;;;;;;7.40;5.80;;;10.70;97.60;;;;;;5004159;28;20451;-85
2024/02/04 01:09:50;;;;;;;8.60;5.93;;;10.70;98.60;;;;;;4989478;28;20701;-85
2024/02/04 01:12:16;;;;;;;7.10;5.33;;;10.70;99.90;;;;;;4988659;28;20180;-85
2024/02/04 01:14:41;;;;;;;7.17;5.90;;;10.70;99.90;;;;;;4991175;28;20608;-85
2024/02/04 01:17:07;;;;;;;8.10;5.53;;;10.70;99.40;;;;;;4995410;28;20327;-85
2024/02/04 01:19:33;;;;;;;7.40;5.50;;;10.70;99.90;;;;;;4990402;28;20711;-85
2024/02/04 01:21:58;;;;;;;6.90;5.87;;;10.70;99.90;;;;;;5001907;28;20498;-85
2024/02/04 01:24:25;;;;;;;6.93;5.37;;;10.70;99.90;;;;;;4991581;28;20288;-85
2024/02/04 01:26:50;;;;;;;7.00;5.43;;;10.70;99.90;;;;;;4996300;28;20665;-85
2024/02/04 01:29:19;;;;;;;6.77;5.20;;;10.70;99.90;;;;;;4995863;28;20530;-83
2024/02/04 01:31:44;;;;;;;7.60;5.60;;;10.70;99.90;;;;;;4998244;28;20558;-85
2024/02/04 01:34:10;;;;;;;6.30;5.53;;;10.70;99.90;;;;;;5013159;28;20554;-84
2024/02/04 01:36:36;;;;;;;7.50;5.90;;;10.80;99.90;;;;;;4997271;28;20818;-85
2024/02/04 01:39:02;;;;;;;7.63;4.93;;;10.80;99.20;;;;;;4996188;28;20195;-85
2024/02/04 01:41:27;;;;;;;8.50;5.67;;;10.80;99.40;;;;;;5001123;28;20546;-86
2024/02/04 01:43:53;;;;;;;9.47;5.63;;;10.80;99.90;;;;;;4998045;28;20227;-87
2024/02/04 01:46:19;;;;;;;7.07;5.67;;;10.80;99.90;;;;;;5002173;28;20306;-85
2024/02/04 01:48:45;;;;;;;7.43;6.13;;;10.80;99.90;;;;;;5003605;28;20502;-87
2024/02/04 01:51:11;;;;;;;8.50;6.10;;;10.80;99.90;;;;;;4999191;28;20231;-84
2024/02/04 01:53:41;;;;;;;11.40;5.80;;;10.70;99.90;;;;;;5002407;28;20459;-83
2024/02/04 01:56:06;;;;;;;7.50;5.70;;;10.70;99.90;;;;;;4999128;28;20459;-83
2024/02/04 01:58:33;;;;;;;7.87;6.07;;;10.70;99.90;;;;;;5016526;28;20447;-86
2024/02/04 02:00:58;;;;;;;8.40;6.23;;;10.70;99.90;;;;;;5012787;28;20207;-87
2024/02/04 02:03:26;;;;;;;6.90;5.60;;;10.70;99.90;;;;;;4997332;28;20442;-88
2024/02/04 02:05:52;;;;;;;8.30;5.97;;;10.70;99.90;;;;;;5002868;28;20216;-86
2024/02/04 02:08:17;;;;;;;8.43;6.50;;;10.70;99.90;;;;;;4998358;28;20466;-85
2024/02/04 02:10:47;;;;;;;8.67;6.50;;;10.70;99.90;;;;;;4991016;28;20972;-85
2024/02/04 02:13:23;;;;;;;9.87;6.23;;;10.80;99.90;;;;;;4996982;28;20180;-85
2024/02/04 02:15:54;;;;;;;7.60;5.67;;;10.70;99.90;;;;;;4994876;28;20814;-87
2024/02/04 02:18:37;;;;;;;8.13;6.43;;;10.70;99.90;;;;;;4997374;28;20525;-85
2024/02/04 02:21:24;;;;;;;10.90;6.40;;;10.80;99.90;;;;;;5006620;28;20476;-87
2024/02/04 02:24:07;;;;;;;7.77;5.80;;;10.80;99.90;;;;;;5001828;28;20812;-86
2024/02/04 02:26:34;;;;;;;7.70;5.20;;;10.80;99.90;;;;;;4998392;28;20796;-86
2024/02/04 02:28:59;;;;;;;9.87;7.03;;;10.80;99.90;;;;;;5012856;28;20517;-86
2024/02/04 02:31:25;;;;;;;9.40;6.60;;;10.80;99.90;;;;;;4999265;28;20447;-86
2024/02/04 02:33:51;;;;;;;9.77;6.27;;;10.80;99.90;;;;;;4998828;28;20188;-85
2024/02/04 02:36:22;;;;;;;8.70;6.40;;;10.80;99.90;;;;;;5000614;28;20574;-86
2024/02/04 02:39:09;;;;;;;7.90;5.53;;;10.80;99.90;;;;;;5000164;28;20246;-86
2024/02/04 02:41:35;;;;;;;9.10;7.00;;;10.80;99.90;;;;;;5002827;28;20497;-86
2024/02/04 02:44:02;;;;;;;8.33;7.27;;;10.80;99.90;;;;;;5009353;28;20499;-86
2024/02/04 02:46:28;;;;;;;10.07;7.37;;;10.80;99.90;;;;;;4995278;28;20465;-87
2024/02/04 02:48:54;;;;;;;9.43;7.17;;;10.80;99.90;;;;;;4995568;28;20463;-88
2024/02/04 02:51:20;;;;;;;8.23;5.80;;;10.80;99.90;;;;;;4996600;28;20191;-86
2024/02/04 02:53:45;;;;;;;9.67;7.03;;;10.80;99.90;;;;;;4999575;28;20191;-84
2024/02/04 02:56:11;;;;;;;12.53;7.20;;;10.80;99.90;;;;;;4998767;28;20587;-85
2024/02/04 02:58:37;;;;;;;10.60;6.80;;;10.80;99.90;;;;;;4996042;28;20188;-85
2024/02/04 03:01:02;;;;;;;9.40;6.90;;;10.80;99.90;;;;;;4995765;28;20560;-85
2024/02/04 03:03:28;;;;;;;8.50;6.77;;;10.90;99.90;;;;;;4993930;28;20307;-85
2024/02/04 03:05:53;;;;;;;11.30;8.10;;;10.80;99.90;;;;;;4994394;28;20235;-84
2024/02/04 03:08:19;;;;;;;7.63;6.27;;;10.90;99.90;;;;;;4993242;28;20737;-85
2024/02/04 03:10:44;;;;;;;8.33;7.40;;;10.90;99.90;;;;;;4992776;28;20212;-85
2024/02/04 03:13:10;;;;;;;8.03;6.23;;;10.90;99.90;;;;;;4995141;28;20191;-86
2024/02/04 03:15:35;;;;;;;10.63;7.70;;;10.90;99.90;;;;;;4995182;28;20240;-85
2024/02/04 03:18:01;;;;;;;7.60;6.50;;;10.90;99.90;;;;;;4994402;28;20192;-83
2024/02/04 03:20:26;;;;;;;8.40;6.70;;;10.90;99.90;;;;;;4988745;28;21098;-84
2024/02/04 03:22:52;;;;;;;8.70;7.17;;;10.90;99.90;;;;;;5007788;28;20195;-87
2024/02/04 03:25:17;;;;;;;9.07;6.87;;;10.90;99.90;;;;;;4985685;28;20212;-86
2024/02/04 03:27:43;;;;;;;13.33;6.93;;;10.90;99.90;;;;;;5005611;28;20273;-85
2024/02/04 03:30:08;;;;;;;10.23;6.87;;;10.90;99.90;;;;;;4993855;28;20204;-84
2024/02/04 03:32:34;;;;;;;11.37;8.50;;;11.00;99.40;;;;;;4990509;28;20201;-87
2024/02/04 03:35:03;;;;;;;8.93;7.00;;;11.00;98.60;;;;;;4993114;28;20211;-86
2024/02/04 03:37:29;;;;;;;8.60;7.37;;;11.00;97.90;;;;;;4993202;28;20188;-84
2024/02/04 03:39:54;;;;;;;10.17;6.87;;;11.00;97.10;;;;;;4991695;28;20465;-85
2024/02/04 03:42:22;;;;;;;10.10;7.00;;;11.00;96.50;;;;;;4990443;28;20203;-85
2024/02/04 03:44:47;;;;;;;9.13;7.20;;;11.00;96.00;;;;;;4993122;28;20231;-84
2024/02/04 03:47:13;;;;;;;11.67;6.77;;;11.10;94.90;;;;;;4995108;28;20443;-85
2024/02/04 03:49:39;;;;;;;10.47;6.80;;;11.00;94.30;;;;;;4992980;28;20205;-84
2024/02/04 03:52:05;;;;;;;11.77;7.00;;;11.10;94.60;;;;;;4997243;28;20445;-85
2024/02/04 03:54:31;;;;;;;8.50;6.83;;;11.00;94.00;;;;;;5001435;28;20463;-84
2024/02/04 03:56:56;;;;;;;9.40;7.40;;;11.10;93.60;;;;;;4998647;28;20191;-84
2024/02/04 03:59:21;;;;;;;7.83;6.70;;;11.10;93.50;;;;;;4995348;28;20246;-85
2024/02/04 04:01:49;;;;;;;8.70;6.33;;;11.10;93.30;;;;;;4998688;28;20188;-83
2024/02/04 04:04:15;;;;;;;9.37;7.07;;;11.10;93.40;;;;;;4998927;28;20187;-82
2024/02/04 04:06:41;;;;;;;10.23;7.40;;;11.00;92.60;;;;;;4998606;28;20442;-82
2024/02/04 04:09:06;;;;;;;8.80;6.67;;;11.10;92.60;;;;;;4996825;28;20499;-84
2024/02/04 04:11:32;;;;;;;10.33;7.73;;;11.10;91.90;;;;;;4992321;28;20452;-85
2024/02/04 04:13:58;;;;;;;13.80;7.73;;;11.10;92.50;;;;;;5001654;28;20694;-86
2024/02/04 04:16:23;;;;;;;10.47;8.20;;;11.10;92.60;;;;;;4999493;28;20572;-85
2024/02/04 04:18:49;;;;;;;9.90;6.73;;;11.10;90.70;;;;;;4996672;28;20242;-85
2024/02/04 04:21:15;;;;;;;10.43;7.63;;;11.10;90.50;;;;;;4993178;28;20188;-85
2024/02/04 04:23:41;;;;;;;10.70;7.73;;;11.10;89.40;;;;;;5009085;28;20282;-85
2024/02/04 04:26:06;;;;;;;12.60;8.90;;;11.10;87.10;;;;;;4995175;28;20458;-85
2024/02/04 04:28:32;;;;;;;10.67;7.70;;;11.00;84.20;;;;;;4996736;28;20207;-86
2024/02/04 04:30:57;;;;;;;14.20;9.10;;;11.10;85.80;;;;;;4999432;28;20250;-84
2024/02/04 04:33:25;;;;;;;12.43;8.53;;;11.10;85.30;;;;;;4996269;28;20255;-85
2024/02/04 04:35:50;;;;;;;10.90;8.60;;;11.10;83.60;;;;;;4993157;28;20223;-86
2024/02/04 04:38:16;;;;;;;15.67;10.90;;;11.10;82.20;;;;;;4999549;28;20446;-86
2024/02/04 04:40:42;;;;;;;13.07;9.03;;;11.10;83.10;;;;;;5000564;28;20198;-87
2024/02/04 04:43:07;;;;;;;17.30;10.63;;;11.10;83.50;;;;;;5000041;28;20672;-87
2024/02/04 04:45:33;;;;;;;12.27;9.07;;;11.10;82.10;;;;;;4999873;28;20239;-86
2024/02/04 04:47:58;;;;;;;16.30;10.70;;;11.10;80.90;;;;;;4995856;28;20216;-87
2024/02/04 04:50:24;;;;;;;15.40;9.70;;;11.10;78.40;;;;;;5000114;28;20218;-87
2024/02/04 04:52:49;;;;;;;15.33;10.77;;;11.20;75.00;;;;;;5013674;28;20180;-85
2024/02/04 04:55:15;;;;;;;15.07;10.03;;;11.10;70.90;;;;;;5003265;28;20196;-86
2024/02/04 04:57:41;;;;;;;15.80;10.83;;;11.10;69.80;;;;;;5002303;28;20216;-87
2024/02/04 05:00:09;;;;;;;19.33;10.97;;;11.10;70.50;;;;;;5000101;28;20602;-84
2024/02/04 05:02:35;;;;;;;16.67;10.83;;;11.20;68.60;;;;;;4995407;28;20188;-85
2024/02/04 05:05:01;;;;;;;16.83;11.40;;;11.10;68.50;;;;;;4997207;28;20482;-85
2024/02/04 05:07:26;;;;;;;14.70;10.83;;;11.20;68.90;;;;;;5000783;28;20439;-83
2024/02/04 05:09:52;;;;;;;13.97;9.77;;;11.20;68.50;;;;;;5002331;28;20208;-85
2024/02/04 05:12:17;;;;;;;17.00;9.73;;;11.20;68.10;;;;;;4999370;28;20213;-85
2024/02/04 05:14:43;;;;;;;12.90;9.40;;;11.20;66.10;;;;;;5011373;28;20262;-85
2024/02/04 05:17:09;;;;;;;13.80;8.73;;;11.20;67.10;;;;;;5000941;28;20184;-82
2024/02/04 05:19:35;;;;;;;12.70;8.77;;;11.20;65.70;;;;;;4999229;28;20190;-83
2024/02/04 05:22:01;;;;;;;13.13;8.63;;;11.10;64.60;;;;;;4998038;28;20450;-85
2024/02/04 05:24:26;;;;;;;10.40;8.00;;;11.20;65.00;;;;;;4995605;28;20708;-84
2024/02/04 05:26:52;;;;;;;14.17;8.93;;;11.10;65.70;;;;;;4995319;28;20507;-84
2024/02/04 05:29:17;;;;;;;17.33;7.90;;;11.10;66.20;;;;;;5014564;28;20622;-83
2024/02/04 05:31:43;;;;;;;12.23;10.10;;;11.10;66.20;;;;;;4999213;28;20600;-85
2024/02/04 05:34:12;;;;;;;12.63;7.83;;;11.10;67.00;;;;;;4998926;28;20258;-85
2024/02/04 05:36:38;;;;;;;13.53;8.70;;;11.10;66.60;;;;;;5005152;28;20447;-86
2024/02/04 05:39:14;;;;;;;14.53;9.50;;;11.10;67.90;;;;;;5001420;28;20493;-86
2024/02/04 05:41:40;;;;;;;10.50;8.20;;;11.10;68.10;;;;;;5015885;28;20443;-84
2024/02/04 05:44:08;;;;;;;11.37;8.10;;;11.20;67.20;;;;;;4998257;28;20443;-84
2024/02/04 05:46:37;;;;;;;14.10;7.70;;;11.20;65.30;;;;;;4996898;28;20458;-85
2024/02/04 05:49:03;;;;;;;11.80;8.00;;;11.10;64.30;;;;;;4999965;28;20458;-87
2024/02/04 05:51:30;;;;;;;11.97;8.20;;;11.20;65.10;;;;;;4998388;28;20449;-87
2024/02/04 05:53:56;;;;;;;15.03;8.10;;;11.10;64.60;;;;;;5003393;28;20439;-84
2024/02/04 05:56:21;;;;;;;11.90;8.17;;;11.10;64.10;;;;;;4999222;28;20459;-87
2024/02/04 05:58:47;;;;;;;11.67;7.53;;;11.10;62.90;;;;;;5003929;28;20688;-85
2024/02/04 06:01:13;;;;;;;9.97;7.10;;;11.10;65.80;;;;;;4994281;28;20192;-84
2024/02/04 06:03:38;;;;;;;9.60;7.37;;;11.10;65.20;;;;;;4999241;28;20284;-88
2024/02/04 06:06:04;;;;;;;12.67;8.40;;;11.20;60.70;;;;;;4994973;28;20774;-85
2024/02/04 06:08:30;;;;;;;9.80;6.33;;;11.20;59.80;;;;;;4990979;28;20195;-87
2024/02/04 06:10:55;;;;;;;13.13;7.70;;;11.20;59.30;;;;;;4996413;28;20279;-85
2024/02/04 06:13:21;;;;;;;10.47;7.80;;;11.20;57.10;;;;;;5008815;28;20277;-84
2024/02/04 06:15:46;;;;;;;10.13;6.77;;;11.20;57.30;;;;;;4995526;28;20356;-85
2024/02/04 06:18:12;;;;;;;11.77;5.73;;;11.20;58.00;;;;;;4999193;28;20244;-84
2024/02/04 06:20:37;;;;;;;10.00;6.73;;;11.10;57.70;;;;;;4994172;28;20251;-87
2024/02/04 06:23:03;;;;;;;6.67;4.77;;;11.20;59.70;;;;;;4997806;28;20250;-86
2024/02/04 06:25:28;;;;;;;6.90;5.30;;;11.10;59.20;;;;;;4994636;28;20270;-84
2024/02/04 06:27:54;;;;;;;7.00;4.73;;;11.10;60.00;;;;;;4997589;28;20714;-83
2024/02/04 06:30:20;;;;;;;6.40;5.00;;;11.20;66.80;;;;;;4993086;28;20207;-83
2024/02/04 06:32:48;;;;;;;7.60;5.10;;;11.10;67.30;;;;;;4993207;28;20185;-86
2024/02/04 06:35:13;;;;;;;6.87;4.63;;;11.20;70.70;;;;;;4995465;28;20890;-86
2024/02/04 06:37:41;;;;;;;6.60;4.17;;;11.10;70.90;;;;;;4988118;28;20448;-85
2024/02/04 06:40:07;;;;;;;5.70;4.00;;;11.10;73.50;;;;;;4992485;28;20191;-83
2024/02/04 06:42:32;;;;;;;5.10;3.50;;;11.10;74.60;;;;;;4992891;28;20439;-84
2024/02/04 06:44:58;;;;;;;5.07;3.60;;;11.10;77.70;;;;;;4995100;28;20528;-84
2024/02/04 06:47:23;;;;;;;5.23;3.80;;;11.10;79.20;;;;;;4992829;28;20188;-85
2024/02/04 06:49:49;;;;;;;5.60;4.43;;;11.10;81.70;;;;;;4996818;28;20263;-83
2024/02/04 06:52:18;;;;;;;5.33;3.57;;;11.00;85.10;;;;;;4993340;28;20244;-84
2024/02/04 06:54:44;;;;;;;3.80;3.10;;;11.10;86.10;;;;;;4995961;28;20200;-83
2024/02/04 06:57:10;;;;;;;4.70;3.43;;;11.00;88.70;;;;;;5007933;28;20458;-85
2024/02/04 06:59:35;;;;;;;5.90;4.17;;;11.00;90.50;;;;;;4992632;28;21071;-85
2024/02/04 07:02:01;;;;;;;4.87;3.73;;;11.00;90.50;;;;;;4999367;28;20184;-85
2024/02/04 07:04:26;;;;;;;6.70;4.73;;;11.00;90.10;;;;;;4996872;28;20236;-86
2024/02/04 07:06:52;;;;;;;4.90;3.80;;;11.00;91.00;;;;;;4998137;28;20243;-84
2024/02/04 07:09:18;;;;;;;4.27;3.30;;;11.00;90.70;;;;;;4990240;28;20211;-82
2024/02/04 07:11:43;;;;;;;8.00;3.47;;;11.10;92.20;;;;;;4991749;28;20180;-85
2024/02/04 07:14:09;;;;;;;4.97;3.70;;;11.10;91.60;;;;;;4988466;28;20578;-85
2024/02/04 07:16:34;;;;;;;4.20;2.83;;;11.10;87.60;;;;;;4986951;28;20176;-87
2024/02/04 07:19:00;;;;;;;3.70;2.80;;;11.10;84.40;;;;;;4985851;28;20607;-84
2024/02/04 07:21:25;;;;;;;5.00;2.90;;;11.10;80.90;;;;;;5008472;28;20188;-83
2024/02/04 07:23:51;;;;;;;3.90;2.87;;;11.10;78.60;;;;;;4992606;28;20916;-83
2024/02/04 07:26:16;;;;;;;3.50;2.70;;;11.10;78.40;;;;;;4994476;28;20204;-85
2024/02/04 07:28:42;;;;;;;4.30;2.80;;;11.10;77.50;;;;;;4987151;28;20218;-85
2024/02/04 07:31:08;;;;;;;3.77;2.53;;;11.10;78.80;;;;;;4992303;28;20287;-81
2024/02/04 07:33:33;;;;;;;3.37;2.50;;;11.10;79.30;;;;;;5002098;28;20346;-84
2024/02/04 07:35:58;;;;;;;2.37;1.93;;;11.10;78.40;;;;;;4991336;28;20209;-87
2024/02/04 07:38:24;;;;;;;3.53;2.67;;;11.10;76.60;;;;;;4995748;28;20223;-87
2024/02/04 07:40:49;;;;;;;2.70;2.37;;;11.10;70.30;;;;;;4993533;28;20184;-85
2024/02/04 07:43:15;;;;;;;3.70;2.57;;;11.10;68.40;;;;;;4994402;28;20196;-85
2024/02/04 07:45:41;;;;;;;3.60;2.80;;;11.10;69.30;;;;;;4992671;28;20220;-84
2024/02/04 07:48:09;;;;;;;3.03;2.43;;;11.10;68.90;;;;;;4996476;28;20191;-86
2024/02/04 07:50:34;;;;;;;5.67;3.43;;;11.10;72.00;;;;;;4988492;28;20605;-83
2024/02/04 07:53:00;;;;;;;3.90;3.03;;;11.10;70.80;;;;;;4995365;28;20514;-85
2024/02/04 07:55:26;;;;;;;7.13;3.53;;;11.20;69.60;;;;;;5012795;28;20208;-86
2024/02/04 07:57:51;;;;;;;5.53;3.90;;;11.20;65.70;;;;;;4994451;28;20188;-86
2024/02/04 08:00:17;;;;;;;4.87;2.77;;;11.20;68.30;;;;;;4998750;28;20192;-84
2024/02/04 08:02:44;;;;;;;5.17;3.80;;;11.10;71.00;;;;;;4988825;28;20225;-83
2024/02/04 08:05:10;;;;;;;4.13;3.27;;;11.10;73.70;;;;;;4987721;28;20849;-81
2024/02/04 08:07:35;;;;;;;6.10;4.10;;;11.20;76.40;;;;;;4986059;28;20451;-88
2024/02/04 08:10:01;;;;;;;4.50;3.70;;;11.20;71.50;;;;;;4985335;28;20223;-83
2024/02/04 08:12:26;;;;;;;7.50;4.40;;;11.20;65.60;;;;;;4984887;28;20184;-84
2024/02/04 08:14:52;;;;;;;6.20;4.43;;;11.20;62.80;;;;;;4999275;28;20732;-85
2024/02/04 08:17:17;;;;;;;5.90;4.87;;;11.30;61.90;;;;;;4989811;28;20237;-83
2024/02/04 08:19:43;;;;;;;6.80;4.00;;;11.30;57.80;;;;;;4989772;28;20196;-83
2024/02/04 08:22:08;;;;;;;9.33;4.33;;;11.30;55.50;;;;;;4989778;28;20188;-83
2024/02/04 08:24:34;;;;;;;6.07;4.43;;;11.30;58.60;;;;;;4986329;28;20599;-82
2024/02/04 08:27:00;;;;;;;4.83;4.27;;;11.30;56.70;;;;;;5004950;28;20700;-83
2024/02/04 08:29:25;;;;;;;5.70;4.00;;;11.40;51.90;;;;;;5007193;28;20466;-82
2024/02/04 08:31:52;;;;;;;5.70;4.30;;;11.60;48.70;;;;;;4992607;28;20211;-84
2024/02/04 08:34:20;;;;;;;4.13;2.90;;;11.70;36.50;;;;;;5004629;28;20761;-83
2024/02/04 08:36:45;;;;;;;5.50;4.07;;;11.80;19.90;;;;;;4992606;28;20543;-83
2024/02/04 08:39:11;;;;;;;6.00;4.10;;;11.70;11.90;;;;;;5008654;28;20973;-84
2024/02/04 08:41:37;;;;;;;5.13;3.83;;;11.60;13.30;;;;;;4991872;28;20192;-84
2024/02/04 08:44:02;;;;;;;8.30;4.23;;;11.60;17.40;;;;;;4994045;28;20192;-82
2024/02/04 08:46:28;;;;;;;4.97;3.40;;;11.60;17.50;;;;;;4988614;28;20204;-84
2024/02/04 08:48:53;;;;;;;4.20;3.17;;;11.60;18.60;;;;;;4988688;28;20213;-84
2024/02/04 08:51:22;;;;;;;3.63;2.57;;;11.60;17.60;;;;;;4990019;28;20200;-85
2024/02/04 08:53:47;;;;;;;4.90;2.80;;;11.70;14.40;;;;;;4994820;28;20184;-84
2024/02/04 08:56:13;;;;;;;3.43;2.17;;;11.70;10.80;;;;;;4995627;28;20513;-83
2024/02/04 08:58:38;;;;;;;5.80;3.43;;;11.70;6.70;;;;;;4997097;28;20180;-85
2024/02/04 09:01:05;;;;;;;3.60;2.63;;;11.70;2.70;;;;;;4998489;28;20190;-87
2024/02/04 09:03:30;;;;;;;3.00;2.53;;;11.70;6.80;;;;;;4994498;28;20206;-86
2024/02/04 09:05:56;;;;;;;3.83;2.73;;;11.70;6.10;;;;;;4997267;28;20546;-85
2024/02/04 09:08:22;;;;;;;4.90;3.40;;;11.70;5.50;;;;;;4995118;28;20184;-85
2024/02/04 09:10:47;;;;;;;6.10;3.17;;;11.70;4.80;;;;;;4990495;28;20463;-84
2024/02/04 09:13:13;;;;;;;5.07;3.07;;;11.70;7.30;;;;;;4988649;28;20558;-84
2024/02/04 09:15:38;;;;;;;5.03;3.37;;;11.70;8.40;;;;;;4994316;28;20200;-86
2024/02/04 09:18:04;;;;;;;7.20;3.37;;;11.60;3.60;;;;;;4991872;28;20230;-85
2024/02/04 09:20:30;;;;;;;4.87;3.20;;;11.70;6.20;;;;;;5004740;28;20500;-84
2024/02/04 09:22:55;;;;;;;6.27;2.83;;;11.80;4.30;;;;;;4998367;28;20204;-84
2024/02/04 09:25:21;;;;;;;5.40;3.70;;;12.00;1.00;;;;;;4994230;28;20212;-84
2024/02/04 09:27:46;;;;;;;5.57;5.00;;;12.10;1.00;;;;;;4992900;28;20207;-85
2024/02/04 09:30:12;;;;;;;5.40;3.77;;;12.20;1.00;;;;;;4994917;28;20219;-84
2024/02/04 09:32:38;;;;;;;7.60;3.40;;;12.20;1.00;;;;;;4994049;28;20226;-85
2024/02/04 09:35:04;;;;;;;4.93;3.80;;;12.20;1.00;;;;;;4994093;28;20459;-86
2024/02/04 09:37:29;;;;;;;6.57;3.93;;;12.20;1.00;;;;;;4990993;28;20191;-85
2024/02/04 09:39:55;;;;;;;5.73;4.07;;;12.10;1.00;;;;;;4995499;28;20451;-85
2024/02/04 09:42:23;;;;;;;7.10;4.70;;;12.10;1.00;;;;;;4991183;28;20197;-85
2024/02/04 09:44:53;;;;;;;7.27;4.23;;;12.00;1.00;;;;;;4995664;28;20239;-85
2024/02/04 09:47:18;;;;;;;7.03;4.73;;;12.00;1.00;;;;;;5011212;28;20450;-88
2024/02/04 09:49:44;;;;;;;6.80;4.40;;;12.00;1.00;;;;;;4998474;28;20838;-87
2024/02/04 09:52:12;;;;;;;7.47;4.37;;;12.00;1.00;;;;;;5010343;23;20239;-85
2024/02/04 09:54:44;;;;;;;7.17;4.50;;;12.00;1.00;;;;;;4973387;28;20252;-83
2024/02/04 09:57:11;;;;;;;6.30;4.90;;;12.00;1.00;;;;;;4976110;28;20440;-84
2024/02/04 09:59:36;;;;;;;7.40;4.70;;;12.00;1.00;;;;;;4991044;28;20455;-84
2024/02/04 10:02:03;;;;;;;6.30;4.33;;;12.10;1.00;;;;;;4966469;28;20835;-83
2024/02/04 10:04:29;;;;;;;6.80;4.40;;;12.10;1.00;;;;;;4956721;28;20252;-83
2024/02/04 10:06:54;;;;;;;7.73;5.27;;;12.20;1.00;;;;;;4959242;29;20479;-83
2024/02/04 10:09:20;;;;;;;6.20;4.80;;;12.10;1.00;;;;;;4954861;28;20607;-82
2024/02/04 10:11:46;;;;;;;8.03;5.27;;;12.10;1.00;;;;;;4959529;28;20244;-83
2024/02/04 10:14:11;;;;;;;7.60;5.30;;;12.20;1.00;;;;;;4960647;28;20429;-82
2024/02/04 10:16:38;;;;;;;8.03;5.90;;;12.10;1.00;;;;;;4960693;28;20185;-83
2024/02/04 10:19:03;;;;;;;6.73;5.63;;;12.10;1.00;;;;;;4959144;28;20185;-84
2024/02/04 10:21:29;;;;;;;6.23;5.43;;;12.20;1.00;;;;;;4959986;28;20475;-83
2024/02/04 10:23:56;;;;;;;8.30;4.60;;;12.20;1.00;;;;;;4976786;28;20571;-85
2024/02/04 10:26:22;;;;;;;6.67;4.53;;;12.20;1.00;;;;;;4953739;28;20627;-84
2024/02/04 10:28:48;;;;;;;6.67;5.20;;;12.30;1.00;;;;;;4969268;28;20437;-84
2024/02/04 10:31:14;;;;;;;8.07;5.43;;;12.30;1.00;;;;;;4956727;28;20221;-84
2024/02/04 10:33:40;;;;;;;7.70;4.33;;;12.30;1.00;;;;;;4958292;28;21082;-83
2024/02/04 10:36:06;;;;;;;9.40;5.30;;;12.30;1.00;;;;;;4961879;28;20436;-84
2024/02/04 10:38:34;;;;;;;10.03;4.70;;;12.20;1.00;;;;;;4961402;28;20182;-84
2024/02/04 10:41:01;;;;;;;9.23;4.93;;;12.20;1.00;;;;;;4959095;28;20531;-83
2024/02/04 10:43:34;;;;;;;11.60;4.90;;;12.20;1.00;;;;;;4959159;28;20471;-84
2024/02/04 10:46:12;;;;;;;8.13;4.40;;;12.30;1.00;;;;;;4961482;28;20939;-83
2024/02/04 10:48:42;;;;;;;8.70;5.10;;;12.30;1.00;;;;;;4961363;28;20447;-83
2024/02/04 10:51:15;;;;;;;5.83;4.00;;;12.30;1.00;;;;;;4949985;28;20472;-82
2024/02/04 10:53:45;;;;;;;6.07;4.80;;;12.20;1.00;;;;;;4948404;28;20540;-84
2024/02/04 10:56:19;;;;;;;8.37;5.50;;;12.20;1.00;;;;;;4949809;28;20459;-83
2024/02/04 10:58:46;;;;;;;8.57;4.17;;;12.20;1.00;;;;;;4951971;28;20444;-84
2024/02/04 11:01:14;;;;;;;6.40;4.20;;;12.20;1.00;;;;;;4951609;28;20850;-84
2024/02/04 11:03:41;;;;;;;6.20;4.70;;;12.30;1.00;;;;;;4952246;28;20499;-84
2024/02/04 11:06:08;;;;;;;11.30;5.47;;;12.40;1.00;;;;;;4946122;28;20468;-83
2024/02/04 11:08:34;;;;;;;6.80;4.53;;;12.50;1.00;;;;;;4951023;28;20449;-83
2024/02/04 11:10:59;;;;;;;8.17;4.33;;;12.60;1.00;;;;;;4952533;28;20484;-83
2024/02/04 11:13:28;;;;;;;6.60;4.73;;;12.60;1.00;;;;;;4955489;28;20461;-84
2024/02/04 11:15:56;;;;;;;9.47;5.70;;;12.50;1.00;;;;;;4957611;28;20534;-83
2024/02/04 11:18:56;;;;;;;8.60;5.50;;;12.50;1.00;;;;;;4958313;28;20507;-84
2024/02/04 11:21:47;;;;;;;7.30;5.47;;;12.50;1.00;;;;;;4953856;28;20466;-84
2024/02/04 11:24:32;;;;;;;12.10;6.60;;;12.40;1.00;;;;;;4951820;28;20437;-86
2024/02/04 11:26:57;;;;;;;6.83;5.73;;;12.40;1.00;;;;;;4952660;28;20519;-87
2024/02/04 11:29:24;;;;;;;7.00;4.80;;;12.30;1.00;;;;;;4954303;28;21001;-83
2024/02/04 11:31:51;;;;;;;7.47;5.17;;;12.30;1.00;;;;;;4953315;28;20227;-85
2024/02/04 11:34:16;;;;;;;10.70;5.40;;;12.30;1.00;;;;;;4953872;28;20923;-83
2024/02/04 11:36:42;;;;;;;5.80;4.53;;;12.20;1.00;;;;;;4954658;28;20454;-85
2024/02/04 11:39:20;;;;;;;6.50;4.57;;;12.20;1.00;;;;;;4953153;28;20185;-83
2024/02/04 11:41:47;;;;;;;8.40;5.00;;;12.20;1.00;;;;;;4949119;28;20523;-83
2024/02/04 11:44:19;;;;;;;6.50;4.93;;;12.20;1.00;;;;;;4953678;28;20452;-83
2024/02/04 11:46:48;;;;;;;6.87;5.00;;;12.20;1.00;;;;;;4951436;28;20457;-83
2024/02/04 11:49:15;;;;;;;11.63;5.80;;;12.20;1.00;;;;;;4947418;28;20473;-84
2024/02/04 11:51:44;;;;;;;5.60;4.37;;;12.10;1.00;;;;;;4949078;28;20484;-84
2024/02/04 11:54:09;;;;;;;9.03;4.73;;;12.10;1.00;;;;;;4946149;28;20492;-84
2024/02/04 11:56:36;;;;;;;7.07;4.63;;;12.10;1.00;;;;;;4955035;28;20976;-83
2024/02/04 11:59:03;;;;;;;7.50;4.83;;;12.00;1.00;;;;;;4963970;28;20674;-85
2024/02/04 12:01:31;;;;;;;5.37;4.00;;;12.00;1.00;;;;;;4963964;28;20555;-84
2024/02/04 12:03:57;;;;;;;7.73;4.00;;;12.10;1.00;;;;;;4947986;28;20448;-84
2024/02/04 12:06:22;;;;;;;3.67;3.20;;;12.00;1.00;;;;;;4946986;28;20495;-84
2024/02/04 12:08:48;;;;;;;5.57;3.60;;;12.10;1.00;;;;;;4946154;28;20192;-84
2024/02/04 12:11:14;;;;;;;6.80;3.97;;;12.10;1.00;;;;;;4943773;28;20694;-82
2024/02/04 12:13:40;;;;;;;6.53;4.27;;;12.20;1.00;;;;;;4959312;28;20475;-83
2024/02/04 12:16:08;;;;;;;4.50;3.60;;;12.20;1.00;;;;;;4944242;28;20433;-84
2024/02/04 12:18:34;;;;;;;5.53;3.80;;;12.20;1.00;;;;;;4940242;28;20436;-85
2024/02/04 12:20:59;;;;;;;5.13;3.80;;;12.10;1.00;;;;;;4940828;28;20472;-85
2024/02/04 12:23:29;;;;;;;4.23;3.50;;;12.20;1.00;;;;;;4945886;28;21502;-85
2024/02/04 12:25:54;;;;;;;4.57;3.40;;;12.20;1.00;;;;;;4942532;28;20640;-83
2024/02/04 12:28:20;;;;;;;6.17;3.97;;;12.20;1.50;;;;;;4939657;28;20528;-87
2024/02/04 12:30:54;;;;;;;4.80;4.20;;;12.10;1.00;;;;;;4940227;28;20213;-83
2024/02/04 12:33:20;;;;;;;5.50;4.57;;;12.10;1.00;;;;;;4942828;28;21392;-83
2024/02/04 12:35:52;;;;;;;5.60;4.27;;;12.10;5.80;;;;;;4937070;28;20452;-84
2024/02/04 12:38:17;;;;;;;6.97;4.70;;;12.00;8.90;;;;;;4942883;28;20583;-83
2024/02/04 12:40:43;;;;;;;11.60;5.57;;;12.00;10.40;;;;;;4961529;28;20449;-83
2024/02/04 12:43:11;;;;;;;6.93;4.80;;;11.90;10.70;;;;;;4952226;28;20248;-83